sensor_id;sensor_type;location;lat;lon;timestamp;pressure;altitude;pressure_sealevel;temperature;humidity
23619;BME280;18207;32.078;34.818;2022-11-21T00:02:17;101178.56;;;28.06;27.28
23619;BME280;18207;32.078;34.818;2022-11-21T00:04:47;101174.53;;;28.07;27.41
23619;BME280;18207;32.078;34.818;2022-11-21T00:07:18;101172.06;;;28.05;27.29
23619;BME280;18207;32.078;34.818;2022-11-21T00:09:49;101172.91;;;28.06;27.22
23619;BME280;18207;32.078;34.818;2022-11-21T00:12:19;101168.06;;;28.06;27.36
23619;BME280;18207;32.078;34.818;2022-11-21T00:14:49;101161.59;;;28.06;27.26
23619;BME280;18207;32.078;34.818;2022-11-21T00:17:21;101164.44;;;28.06;27.38
23619;BME280;18207;32.078;34.818;2022-11-21T00:19:52;101164.03;;;28.07;27.35
23619;BME280;18207;32.078;34.818;2022-11-21T00:22:22;101160.41;;;28.07;27.45
23619;BME280;18207;32.078;34.818;2022-11-21T00:24:53;101155.56;;;28.07;27.36
23619;BME280;18207;32.078;34.818;2022-11-21T00:27:23;101156.41;;;28.08;27.43
23619;BME280;18207;32.078;34.818;2022-11-21T00:29:53;101152.38;;;28.09;27.35
23619;BME280;18207;32.078;34.818;2022-11-21T00:32:26;101155.22;;;28.09;27.44
23619;BME280;18207;32.078;34.818;2022-11-21T00:34:57;101160.03;;;28.08;27.33
23619;BME280;18207;32.078;34.818;2022-11-21T00:37:27;101155.56;;;28.07;27.33
23619;BME280;18207;32.078;34.818;2022-11-21T00:39:58;101162.84;;;28.08;27.55
23619;BME280;18207;32.078;34.818;2022-11-21T00:42:28;101155.56;;;28.07;26.92
23619;BME280;18207;32.078;34.818;2022-11-21T00:44:58;101157.59;;;28.07;27.50
23619;BME280;18207;32.078;34.818;2022-11-21T00:47:30;101150.28;;;28.06;27.40
23619;BME280;18207;32.078;34.818;2022-11-21T00:50:01;101159.56;;;28.06;27.33
23619;BME280;18207;32.078;34.818;2022-11-21T00:52:31;101155.13;;;28.05;27.38
23619;BME280;18207;32.078;34.818;2022-11-21T00:55:02;101162.00;;;28.04;27.41
23619;BME280;18207;32.078;34.818;2022-11-21T00:57:33;101154.69;;;28.03;27.13
23619;BME280;18207;32.078;34.818;2022-11-21T01:00:05;101149.03;;;28.03;27.36
23619;BME280;18207;32.078;34.818;2022-11-21T01:02:37;101159.50;;;28.03;27.42
23619;BME280;18207;32.078;34.818;2022-11-21T01:05:09;101162.34;;;28.03;27.34
23619;BME280;18207;32.078;34.818;2022-11-21T01:07:39;101155.88;;;28.02;27.42
23619;BME280;18207;32.078;34.818;2022-11-21T01:10:09;101166.00;;;28.03;27.45
23619;BME280;18207;32.078;34.818;2022-11-21T01:12:39;101151.03;;;28.03;27.34
23619;BME280;18207;32.078;34.818;2022-11-21T01:15:10;101153.88;;;28.03;27.31
23619;BME280;18207;32.078;34.818;2022-11-21T01:17:43;101145.38;;;28.03;27.21
23619;BME280;18207;32.078;34.818;2022-11-21T01:20:13;101149.84;;;28.04;27.42
23619;BME280;18207;32.078;34.818;2022-11-21T01:22:43;101141.75;;;28.02;27.52
23619;BME280;18207;32.078;34.818;2022-11-21T01:25:13;101144.94;;;28.01;27.45
23619;BME280;18207;32.078;34.818;2022-11-21T01:27:44;101144.94;;;28.01;27.44
23619;BME280;18207;32.078;34.818;2022-11-21T01:30:14;101144.13;;;28.00;27.54
23619;BME280;18207;32.078;34.818;2022-11-21T01:32:49;101150.59;;;28.01;27.47
23619;BME280;18207;32.078;34.818;2022-11-21T01:35:20;101148.16;;;27.99;27.35
23619;BME280;18207;32.078;34.818;2022-11-21T01:37:49;101160.28;;;28.00;27.46
23619;BME280;18207;32.078;34.818;2022-11-21T01:40:20;101160.28;;;28.00;27.40
23619;BME280;18207;32.078;34.818;2022-11-21T01:43:02;101152.63;;;28.00;27.37
23619;BME280;18207;32.078;34.818;2022-11-21T01:45:55;101149.34;;;27.98;27.36
23619;BME280;18207;32.078;34.818;2022-11-21T01:48:38;101151.72;;;27.96;27.31
23619;BME280;18207;32.078;34.818;2022-11-21T01:51:16;101145.66;;;27.94;27.58
23619;BME280;18207;32.078;34.818;2022-11-21T01:53:55;101145.22;;;27.92;27.30
23619;BME280;18207;32.078;34.818;2022-11-21T01:56:32;101143.56;;;27.91;27.58
23619;BME280;18207;32.078;34.818;2022-11-21T01:59:08;101139.09;;;27.90;27.41
23619;BME280;18207;32.078;34.818;2022-11-21T02:01:41;101129.00;;;27.89;27.48
23619;BME280;18207;32.078;34.818;2022-11-21T02:04:15;101137.47;;;27.89;27.47
23619;BME280;18207;32.078;34.818;2022-11-21T02:06:46;101131.38;;;27.87;27.49
23619;BME280;18207;32.078;34.818;2022-11-21T02:09:18;101127.75;;;27.87;27.82
23619;BME280;18207;32.078;34.818;2022-11-21T02:11:52;101128.56;;;27.87;27.49
23619;BME280;18207;32.078;34.818;2022-11-21T02:14:24;101131.38;;;27.87;27.45
23619;BME280;18207;32.078;34.818;2022-11-21T02:17:00;101119.28;;;27.87;27.60
23619;BME280;18207;32.078;34.818;2022-11-21T02:19:42;101117.63;;;27.86;27.43
23619;BME280;18207;32.078;34.818;2022-11-21T02:22:30;101117.19;;;27.84;27.62
23619;BME280;18207;32.078;34.818;2022-11-21T02:25:12;101118.38;;;27.83;27.61
23619;BME280;18207;32.078;34.818;2022-11-21T02:27:43;101117.13;;;27.80;27.43
23619;BME280;18207;32.078;34.818;2022-11-21T02:30:15;101109.47;;;27.81;27.49
23619;BME280;18207;32.078;34.818;2022-11-21T02:32:46;101117.94;;;27.81;27.63
23619;BME280;18207;32.078;34.818;2022-11-21T02:35:18;101116.75;;;27.82;27.59
23619;BME280;18207;32.078;34.818;2022-11-21T02:38:06;101113.56;;;27.83;27.64
23619;BME280;18207;32.078;34.818;2022-11-21T02:43:51;101122.03;;;27.83;27.52
23619;BME280;18207;32.078;34.818;2022-11-21T02:46:26;101109.09;;;27.82;27.53
23619;BME280;18207;32.078;34.818;2022-11-21T02:48:57;101124.03;;;27.83;27.39
23619;BME280;18207;32.078;34.818;2022-11-21T02:51:28;101120.00;;;27.84;27.56
23619;BME280;18207;32.078;34.818;2022-11-21T02:53:59;101111.53;;;27.84;27.67
23619;BME280;18207;32.078;34.818;2022-11-21T02:56:31;101114.38;;;27.84;27.70
23619;BME280;18207;32.078;34.818;2022-11-21T02:59:01;101118.38;;;27.83;27.75
23619;BME280;18207;32.078;34.818;2022-11-21T03:01:32;101115.19;;;27.84;27.63
23619;BME280;18207;32.078;34.818;2022-11-21T03:04:03;101113.97;;;27.85;27.63
23619;BME280;18207;32.078;34.818;2022-11-21T03:06:33;101118.44;;;27.86;27.66
23619;BME280;18207;32.078;34.818;2022-11-21T03:09:03;101127.38;;;27.88;27.65
23619;BME280;18207;32.078;34.818;2022-11-21T03:11:35;101126.56;;;27.88;27.67
23619;BME280;18207;32.078;34.818;2022-11-21T03:14:06;101124.53;;;27.88;27.60
23619;BME280;18207;32.078;34.818;2022-11-21T03:16:36;101121.72;;;27.88;27.56
23619;BME280;18207;32.078;34.818;2022-11-21T03:19:06;101131.03;;;27.89;27.58
23619;BME280;18207;32.078;34.818;2022-11-21T03:21:37;101128.19;;;27.89;27.64
23619;BME280;18207;32.078;34.818;2022-11-21T03:24:07;101128.19;;;27.89;27.58
23619;BME280;18207;32.078;34.818;2022-11-21T03:26:40;101133.00;;;27.88;27.75
23619;BME280;18207;32.078;34.818;2022-11-21T03:29:10;101124.91;;;27.87;27.81
23619;BME280;18207;32.078;34.818;2022-11-21T03:31:41;101128.09;;;27.85;27.74
23619;BME280;18207;32.078;34.818;2022-11-21T03:34:11;101128.94;;;27.86;27.79
23619;BME280;18207;32.078;34.818;2022-11-21T03:36:42;101125.28;;;27.85;27.69
23619;BME280;18207;32.078;34.818;2022-11-21T03:39:12;101118.81;;;27.85;27.78
23619;BME280;18207;32.078;34.818;2022-11-21T03:41:44;101121.66;;;27.85;27.71
23619;BME280;18207;32.078;34.818;2022-11-21T03:44:14;101116.38;;;27.83;27.79
23619;BME280;18207;32.078;34.818;2022-11-21T03:46:45;101121.66;;;27.85;27.62
23619;BME280;18207;32.078;34.818;2022-11-21T03:49:16;101116.38;;;27.83;27.79
23619;BME280;18207;32.078;34.818;2022-11-21T03:51:46;101122.41;;;27.82;27.71
23619;BME280;18207;32.078;34.818;2022-11-21T03:54:17;101109.91;;;27.83;27.77
23619;BME280;18207;32.078;34.818;2022-11-21T03:56:49;101109.47;;;27.81;27.78
23619;BME280;18207;32.078;34.818;2022-11-21T03:59:19;101117.13;;;27.80;27.56
23619;BME280;18207;32.078;34.818;2022-11-21T04:01:49;101113.84;;;27.78;27.82
23619;BME280;18207;32.078;34.818;2022-11-21T04:04:20;101113.06;;;27.78;27.62
23619;BME280;18207;32.078;34.818;2022-11-21T04:06:51;101113.41;;;27.76;27.87
23619;BME280;18207;32.078;34.818;2022-11-21T04:09:22;101121.88;;;27.76;27.84
23619;BME280;18207;32.078;34.818;2022-11-21T04:11:54;101110.59;;;27.76;27.88
23619;BME280;18207;32.078;34.818;2022-11-21T04:14:24;101123.06;;;27.75;27.97
23619;BME280;18207;32.078;34.818;2022-11-21T04:16:56;101117.44;;;27.75;27.82
23619;BME280;18207;32.078;34.818;2022-11-21T04:19:26;101127.53;;;27.76;27.88
23619;BME280;18207;32.078;34.818;2022-11-21T04:21:56;101122.72;;;27.77;27.79
23619;BME280;18207;32.078;34.818;2022-11-21T04:24:27;101118.72;;;27.78;27.98
23619;BME280;18207;32.078;34.818;2022-11-21T04:26:59;101119.50;;;27.78;28.09
23619;BME280;18207;32.078;34.818;2022-11-21T04:29:30;101119.50;;;27.78;27.79
23619;BME280;18207;32.078;34.818;2022-11-21T04:32:00;101118.31;;;27.79;27.98
23619;BME280;18207;32.078;34.818;2022-11-21T04:34:31;101119.97;;;27.80;27.98
23619;BME280;18207;32.078;34.818;2022-11-21T04:37:01;101128.03;;;27.82;28.07
23619;BME280;18207;32.078;34.818;2022-11-21T04:39:38;101129.69;;;27.83;28.09
23619;BME280;18207;32.078;34.818;2022-11-21T04:42:09;101131.31;;;27.84;27.83
23619;BME280;18207;32.078;34.818;2022-11-21T04:44:40;101136.59;;;27.85;28.18
23619;BME280;18207;32.078;34.818;2022-11-21T04:47:10;101135.03;;;27.88;28.14
23619;BME280;18207;32.078;34.818;2022-11-21T04:49:41;101133.47;;;27.90;28.29
23619;BME280;18207;32.078;34.818;2022-11-21T04:52:11;101139.16;;;27.94;28.14
23619;BME280;18207;32.078;34.818;2022-11-21T04:54:42;101151.44;;;28.01;28.20
23619;BME280;18207;32.078;34.818;2022-11-21T04:57:14;101152.06;;;28.14;28.39
23619;BME280;18207;32.078;34.818;2022-11-21T04:59:44;101156.72;;;28.25;28.51
23619;BME280;18207;32.078;34.818;2022-11-21T05:02:15;101160.59;;;28.40;28.59
23619;BME280;18207;32.078;34.818;2022-11-21T05:04:45;101163.22;;;28.52;28.71
23619;BME280;18207;32.078;34.818;2022-11-21T05:07:16;101161.78;;;28.61;28.51
23619;BME280;18207;32.078;34.818;2022-11-21T05:09:47;101159.50;;;28.70;28.53
23619;BME280;18207;32.078;34.818;2022-11-21T05:12:19;101160.44;;;28.77;28.35
23619;BME280;18207;32.078;34.818;2022-11-21T05:15:07;101163.34;;;28.81;28.54
23619;BME280;18207;32.078;34.818;2022-11-21T05:17:38;101156.88;;;28.84;28.37
23619;BME280;18207;32.078;34.818;2022-11-21T05:20:10;101160.56;;;28.84;28.37
23619;BME280;18207;32.078;34.818;2022-11-21T05:22:40;101170.69;;;28.85;28.40
23619;BME280;18207;32.078;34.818;2022-11-21T05:25:13;101165.03;;;28.85;28.37
23619;BME280;18207;32.078;34.818;2022-11-21T05:27:45;101167.47;;;28.87;28.46
23619;BME280;18207;32.078;34.818;2022-11-21T05:30:16;101169.91;;;28.88;28.31
23619;BME280;18207;32.078;34.818;2022-11-21T05:32:47;101172.81;;;28.92;28.80
23619;BME280;18207;32.078;34.818;2022-11-21T05:35:17;101180.50;;;28.95;28.78
23619;BME280;18207;32.078;34.818;2022-11-21T05:37:47;101179.34;;;28.99;28.34
23619;BME280;18207;32.078;34.818;2022-11-21T05:40:17;101172.53;;;29.04;28.56
23619;BME280;18207;32.078;34.818;2022-11-21T05:42:50;101165.38;;;29.10;28.56
23619;BME280;18207;32.078;34.818;2022-11-21T05:45:37;101176.41;;;29.18;28.38
23619;BME280;18207;32.078;34.818;2022-11-21T05:48:07;101177.34;;;29.29;28.63
23619;BME280;18207;32.078;34.818;2022-11-21T05:50:38;101173.06;;;29.39;28.62
23619;BME280;18207;32.078;34.818;2022-11-21T05:53:08;101174.03;;;29.50;28.97
23619;BME280;18207;32.078;34.818;2022-11-21T05:55:38;101166.06;;;29.62;28.71
23619;BME280;18207;32.078;34.818;2022-11-21T05:58:11;101164.66;;;29.78;28.66
23619;BME280;18207;32.078;34.818;2022-11-21T06:00:42;101166.47;;;29.97;28.91
23619;BME280;18207;32.078;34.818;2022-11-21T06:03:12;101163.03;;;30.14;28.87
23619;BME280;18207;32.078;34.818;2022-11-21T06:06:03;101159.97;;;30.33;29.05
23619;BME280;18207;32.078;34.818;2022-11-21T06:08:36;101160.19;;;30.53;28.96
23619;BME280;18207;32.078;34.818;2022-11-21T06:11:09;101164.75;;;30.72;28.89
23619;BME280;18207;32.078;34.818;2022-11-21T06:13:42;101161.19;;;30.85;29.03
23619;BME280;18207;32.078;34.818;2022-11-21T06:16:15;101164.09;;;30.92;28.49
23619;BME280;18207;32.078;34.818;2022-11-21T06:18:48;101164.53;;;30.98;28.54
23619;BME280;18207;32.078;34.818;2022-11-21T06:21:27;101153.66;;;31.03;28.59
23619;BME280;18207;32.078;34.818;2022-11-21T06:24:01;101155.31;;;31.11;28.09
23619;BME280;18207;32.078;34.818;2022-11-21T06:26:32;101153.72;;;31.17;28.38
23619;BME280;18207;32.078;34.818;2022-11-21T06:29:11;101155.78;;;31.27;28.28
23619;BME280;18207;32.078;34.818;2022-11-21T06:31:43;101149.75;;;31.32;28.28
23619;BME280;18207;32.078;34.818;2022-11-21T06:34:15;101144.06;;;31.35;28.35
23619;BME280;18207;32.078;34.818;2022-11-21T06:36:45;101144.09;;;31.39;28.47
23619;BME280;18207;32.078;34.818;2022-11-21T06:39:17;101144.09;;;31.46;28.03
23619;BME280;18207;32.078;34.818;2022-11-21T06:41:48;101151.47;;;31.57;28.28
23619;BME280;18207;32.078;34.818;2022-11-21T06:44:20;101135.69;;;31.70;28.15
23619;BME280;18207;32.078;34.818;2022-11-21T06:46:51;101149.53;;;31.86;28.71
23619;BME280;18207;32.078;34.818;2022-11-21T06:49:21;101141.41;;;32.02;28.15
23619;BME280;18207;32.078;34.818;2022-11-21T06:51:51;101140.28;;;32.17;28.02
23619;BME280;18207;32.078;34.818;2022-11-21T06:54:22;101145.56;;;32.32;28.42
23619;BME280;18207;32.078;34.818;2022-11-21T06:56:52;101139.84;;;32.46;28.10
23619;BME280;18207;32.078;34.818;2022-11-21T06:59:27;101147.22;;;32.61;28.09
23619;BME280;18207;32.078;34.818;2022-11-21T07:01:58;101140.69;;;32.71;28.24
23619;BME280;18207;32.078;34.818;2022-11-21T07:04:29;101150.81;;;32.82;27.71
23619;BME280;18207;32.078;34.818;2022-11-21T07:06:59;101143.50;;;32.92;27.89
23619;BME280;18207;32.078;34.818;2022-11-21T07:09:29;101139.81;;;33.02;28.11
23619;BME280;18207;32.078;34.818;2022-11-21T07:12:01;101135.31;;;33.08;27.93
23619;BME280;18207;32.078;34.818;2022-11-21T07:14:46;101130.84;;;33.10;27.69
23619;BME280;18207;32.078;34.818;2022-11-21T07:17:17;101136.16;;;33.12;27.15
23619;BME280;18207;32.078;34.818;2022-11-21T07:19:47;101134.09;;;33.15;27.85
23619;BME280;18207;32.078;34.818;2022-11-21T07:22:18;101131.63;;;33.17;27.64
23619;BME280;18207;32.078;34.818;2022-11-21T07:24:49;101120.66;;;33.19;27.33
23619;BME280;18207;32.078;34.818;2022-11-21T07:27:19;101121.06;;;33.21;27.64
23619;BME280;18207;32.078;34.818;2022-11-21T07:29:51;101111.66;;;33.24;27.78
23619;BME280;18207;32.078;34.818;2022-11-21T07:32:24;101112.03;;;33.30;27.52
23619;BME280;18207;32.078;34.818;2022-11-21T07:34:59;101110.81;;;33.38;27.29
23619;BME280;18207;32.078;34.818;2022-11-21T07:37:36;101107.47;;;33.50;27.77
23619;BME280;18207;32.078;34.818;2022-11-21T07:40:08;101098.47;;;33.62;27.14
23619;BME280;18207;32.078;34.818;2022-11-21T07:42:38;101102.03;;;33.76;27.54
23619;BME280;18207;32.078;34.818;2022-11-21T07:45:13;101094.59;;;33.93;27.80
23619;BME280;18207;32.078;34.818;2022-11-21T07:47:44;101095.75;;;34.05;27.39
23619;BME280;18207;32.078;34.818;2022-11-21T07:50:15;101099.69;;;34.22;27.46
23619;BME280;18207;32.078;34.818;2022-11-21T07:52:45;101096.28;;;34.41;27.69
23619;BME280;18207;32.078;34.818;2022-11-21T07:55:15;101090.00;;;34.60;28.23
23619;BME280;18207;32.078;34.818;2022-11-21T07:57:45;101081.19;;;34.81;28.56
23619;BME280;18207;32.078;34.818;2022-11-21T08:00:19;101076.84;;;35.06;28.65
23619;BME280;18207;32.078;34.818;2022-11-21T08:02:50;101077.38;;;35.27;28.54
23619;BME280;18207;32.078;34.818;2022-11-21T08:05:21;101070.94;;;35.50;28.55
23619;BME280;18207;32.078;34.818;2022-11-21T08:07:51;101064.13;;;35.70;28.57
23619;BME280;18207;32.078;34.818;2022-11-21T08:10:22;101060.50;;;35.92;28.35
23619;BME280;18207;32.078;34.818;2022-11-21T08:12:52;101066.72;;;36.14;27.92
23619;BME280;18207;32.078;34.818;2022-11-21T08:15:24;101054.97;;;36.31;27.49
23619;BME280;18207;32.078;34.818;2022-11-21T08:17:54;101053.13;;;36.41;27.13
23619;BME280;18207;32.078;34.818;2022-11-21T08:20:25;101048.56;;;36.47;26.94
23619;BME280;18207;32.078;34.818;2022-11-21T08:22:55;101048.84;;;36.52;27.32
23619;BME280;18207;32.078;34.818;2022-11-21T08:25:25;101039.69;;;36.61;27.44
23619;BME280;18207;32.078;34.818;2022-11-21T08:27:56;101038.69;;;36.71;26.67
23619;BME280;18207;32.078;34.818;2022-11-21T08:30:30;101039.34;;;36.78;26.82
23619;BME280;18207;32.078;34.818;2022-11-21T08:33:00;101036.78;;;36.83;26.46
23619;BME280;18207;32.078;34.818;2022-11-21T08:35:30;101027.81;;;36.81;26.02
23619;BME280;18207;32.078;34.818;2022-11-21T08:38:01;101043.47;;;36.77;25.79
23619;BME280;18207;32.078;34.818;2022-11-21T08:40:33;101032.94;;;36.71;25.55
23619;BME280;18207;32.078;34.818;2022-11-21T08:43:06;101032.25;;;36.63;26.08
23619;BME280;18207;32.078;34.818;2022-11-21T08:45:39;101037.34;;;36.56;25.28
23619;BME280;18207;32.078;34.818;2022-11-21T08:48:10;101034.25;;;36.47;25.56
23619;BME280;18207;32.078;34.818;2022-11-21T08:50:41;101027.88;;;36.36;24.96
23619;BME280;18207;32.078;34.818;2022-11-21T08:53:11;101014.19;;;36.24;25.37
23619;BME280;18207;32.078;34.818;2022-11-21T08:55:42;101010.25;;;36.14;25.21
23619;BME280;18207;32.078;34.818;2022-11-21T08:58:12;101010.91;;;36.02;25.21
23619;BME280;18207;32.078;34.818;2022-11-21T09:00:45;101002.00;;;35.93;25.04
23619;BME280;18207;32.078;34.818;2022-11-21T09:03:16;101001.75;;;35.84;24.67
23619;BME280;18207;32.078;34.818;2022-11-21T09:05:57;100996.22;;;35.74;24.68
23619;BME280;18207;32.078;34.818;2022-11-21T09:08:29;100991.41;;;35.68;24.68
23619;BME280;18207;32.078;34.818;2022-11-21T09:11:03;100998.06;;;35.61;24.39
23619;BME280;18207;32.078;34.818;2022-11-21T09:13:36;100993.25;;;35.55;24.82
23619;BME280;18207;32.078;34.818;2022-11-21T09:16:11;100985.13;;;35.50;24.84
23619;BME280;18207;32.078;34.818;2022-11-21T09:18:58;100981.97;;;35.44;24.36
23619;BME280;18207;32.078;34.818;2022-11-21T09:21:28;100984.88;;;35.41;24.74
23619;BME280;18207;32.078;34.818;2022-11-21T09:24:02;100984.94;;;35.37;24.72
23619;BME280;18207;32.078;34.818;2022-11-21T09:26:33;100975.59;;;35.33;24.31
23619;BME280;18207;32.078;34.818;2022-11-21T09:29:18;100975.25;;;35.28;24.95
23619;BME280;18207;32.078;34.818;2022-11-21T09:31:50;100963.88;;;35.24;24.97
23619;BME280;18207;32.078;34.818;2022-11-21T09:34:21;100962.75;;;35.18;24.79
23619;BME280;18207;32.078;34.818;2022-11-21T09:36:52;100956.28;;;35.14;25.09
23619;BME280;18207;32.078;34.818;2022-11-21T09:39:24;100953.91;;;35.09;24.25
23619;BME280;18207;32.078;34.818;2022-11-21T09:42:17;100940.09;;;35.04;24.54
23619;BME280;18207;32.078;34.818;2022-11-21T09:45:09;100940.16;;;34.97;24.74
23619;BME280;18207;32.078;34.818;2022-11-21T09:47:46;100943.47;;;34.92;24.54
23619;BME280;18207;32.078;34.818;2022-11-21T09:50:29;100939.88;;;34.89;24.69
23619;BME280;18207;32.078;34.818;2022-11-21T09:53:08;100934.25;;;34.82;24.76
23619;BME280;18207;32.078;34.818;2022-11-21T09:55:45;100927.78;;;34.78;24.56
23619;BME280;18207;32.078;34.818;2022-11-21T09:58:25;100920.50;;;34.73;24.83
23619;BME280;18207;32.078;34.818;2022-11-21T10:01:00;100929.97;;;34.67;24.99
23619;BME280;18207;32.078;34.818;2022-11-21T10:03:40;100925.53;;;34.62;25.19
23619;BME280;18207;32.078;34.818;2022-11-21T10:06:18;100932.13;;;34.56;24.91
23619;BME280;18207;32.078;34.818;2022-11-21T10:09:02;100927.69;;;34.51;24.63
23619;BME280;18207;32.078;34.818;2022-11-21T10:11:47;100923.69;;;34.45;24.60
23619;BME280;18207;32.078;34.818;2022-11-21T10:14:52;100918.88;;;34.39;24.80
23619;BME280;18207;32.078;34.818;2022-11-21T10:17:39;100921.38;;;34.33;24.94
23619;BME280;18207;32.078;34.818;2022-11-21T10:20:46;100917.81;;;34.26;25.26
23619;BME280;18207;32.078;34.818;2022-11-21T10:24:05;100918.28;;;34.17;25.08
23619;BME280;18207;32.078;34.818;2022-11-21T10:26:49;100907.75;;;34.14;25.53
23619;BME280;18207;32.078;34.818;2022-11-21T10:29:27;100905.34;;;34.09;24.96
23619;BME280;18207;32.078;34.818;2022-11-21T10:32:18;100901.72;;;34.05;25.61
23619;BME280;18207;32.078;34.818;2022-11-21T10:34:52;100905.00;;;34.01;25.10
23619;BME280;18207;32.078;34.818;2022-11-21T10:37:36;100901.81;;;33.95;25.44
23619;BME280;18207;32.078;34.818;2022-11-21T10:40:23;100902.28;;;33.90;24.96
23619;BME280;18207;32.078;34.818;2022-11-21T10:42:59;100903.16;;;33.84;25.59
23619;BME280;18207;32.078;34.818;2022-11-21T10:45:53;100899.56;;;33.76;25.34
23619;BME280;18207;32.078;34.818;2022-11-21T10:48:22;100895.13;;;33.72;25.01
23619;BME280;18207;32.078;34.818;2022-11-21T10:51:27;100897.59;;;33.66;25.17
23619;BME280;18207;32.078;34.818;2022-11-21T10:54:09;100896.84;;;33.59;25.65
23619;BME280;18207;32.078;34.818;2022-11-21T10:57:04;100892.03;;;33.52;25.32
23619;BME280;18207;32.078;34.818;2022-11-21T10:59:35;100885.13;;;33.46;25.41
23619;BME280;18207;32.078;34.818;2022-11-21T11:02:24;100890.88;;;33.43;25.57
23619;BME280;18207;32.078;34.818;2022-11-21T11:05:19;100884.81;;;33.37;25.69
23619;BME280;18207;32.078;34.818;2022-11-21T11:08:01;100885.63;;;33.34;25.57
23619;BME280;18207;32.078;34.818;2022-11-21T11:10:36;100889.75;;;33.30;26.04
23619;BME280;18207;32.078;34.818;2022-11-21T11:13:16;100873.50;;;33.27;25.55
23619;BME280;18207;32.078;34.818;2022-11-21T11:16:17;100875.59;;;33.19;25.46
23619;BME280;18207;32.078;34.818;2022-11-21T11:18:56;100870.72;;;33.16;25.66
23619;BME280;18207;32.078;34.818;2022-11-21T11:21:29;100858.56;;;33.13;25.64
23619;BME280;18207;32.078;34.818;2022-11-21T11:24:21;100862.25;;;33.10;25.58
23619;BME280;18207;32.078;34.818;2022-11-21T11:27:01;100862.25;;;33.06;25.96
23619;BME280;18207;32.078;34.818;2022-11-21T11:29:32;100864.28;;;33.02;25.93
23619;BME280;18207;32.078;34.818;2022-11-21T11:32:18;100867.16;;;32.99;26.25
23619;BME280;18207;32.078;34.818;2022-11-21T11:34:57;100873.28;;;32.97;25.94
23619;BME280;18207;32.078;34.818;2022-11-21T11:37:36;100879.81;;;32.94;26.03
23619;BME280;18207;32.078;34.818;2022-11-21T11:40:20;100876.16;;;32.90;26.08
23619;BME280;18207;32.078;34.818;2022-11-21T11:43:07;100868.47;;;32.87;25.77
23619;BME280;18207;32.078;34.818;2022-11-21T11:46:21;100881.91;;;32.83;26.16
23619;BME280;18207;32.078;34.818;2022-11-21T11:49:21;100873.81;;;32.78;26.37
23619;BME280;18207;32.078;34.818;2022-11-21T11:51:57;100868.53;;;32.77;26.18
23619;BME280;18207;32.078;34.818;2022-11-21T11:54:40;100879.13;;;32.76;25.75
23619;BME280;18207;32.078;34.818;2022-11-21T11:57:13;100868.56;;;32.73;26.61
23619;BME280;18207;32.078;34.818;2022-11-21T12:00:00;100875.47;;;32.72;25.93
23619;BME280;18207;32.078;34.818;2022-11-21T12:02:47;100877.13;;;32.70;26.44
23619;BME280;18207;32.078;34.818;2022-11-21T12:05:25;100873.06;;;32.67;26.67
23619;BME280;18207;32.078;34.818;2022-11-21T12:08:09;100873.47;;;32.66;26.22
23619;BME280;18207;32.078;34.818;2022-11-21T12:11:18;100872.69;;;32.62;26.44
23619;BME280;18207;32.078;34.818;2022-11-21T12:14:19;100871.50;;;32.59;26.64
23619;BME280;18207;32.078;34.818;2022-11-21T12:17:09;100877.97;;;32.56;26.30
23619;BME280;18207;32.078;34.818;2022-11-21T12:19:41;100865.75;;;32.56;26.43
23619;BME280;18207;32.078;34.818;2022-11-21T12:22:13;100864.56;;;32.53;26.83
23619;BME280;18207;32.078;34.818;2022-11-21T12:24:44;100862.53;;;32.54;26.43
23619;BME280;18207;32.078;34.818;2022-11-21T12:27:26;100860.91;;;32.53;26.71
23619;BME280;18207;32.078;34.818;2022-11-21T12:30:47;100861.34;;;32.48;26.64
23619;BME280;18207;32.078;34.818;2022-11-21T12:33:22;100858.91;;;32.46;26.63
23619;BME280;18207;32.078;34.818;2022-11-21T12:36:18;100862.19;;;32.45;27.00
23619;BME280;18207;32.078;34.818;2022-11-21T12:39:44;100861.38;;;32.41;26.98
23619;BME280;18207;32.078;34.818;2022-11-21T12:42:35;100856.50;;;32.38;26.62
23619;BME280;18207;32.078;34.818;2022-11-21T12:45:32;100863.41;;;32.37;27.08
23619;BME280;18207;32.078;34.818;2022-11-21T12:48:35;100855.31;;;32.35;26.73
23619;BME280;18207;32.078;34.818;2022-11-21T12:51:51;100855.75;;;32.30;26.92
23619;BME280;18207;32.078;34.818;2022-11-21T12:54:56;100853.28;;;32.29;26.74
23619;BME280;18207;32.078;34.818;2022-11-21T12:57:45;100859.81;;;32.26;26.66
23619;BME280;18207;32.078;34.818;2022-11-21T13:00:25;100853.31;;;32.25;26.94
23619;BME280;18207;32.078;34.818;2022-11-21T13:03:27;100842.34;;;32.24;27.08
23619;BME280;18207;32.078;34.818;2022-11-21T13:06:04;100849.66;;;32.22;27.11
23619;BME280;18207;32.078;34.818;2022-11-21T13:08:37;100850.91;;;32.21;26.81
23619;BME280;18207;32.078;34.818;2022-11-21T13:11:29;100837.91;;;32.20;27.15
23619;BME280;18207;32.078;34.818;2022-11-21T13:14:28;100835.88;;;32.17;27.32
23619;BME280;18207;32.078;34.818;2022-11-21T13:17:33;100842.00;;;32.15;26.88
23619;BME280;18207;32.078;34.818;2022-11-21T13:20:16;100838.31;;;32.15;27.32
23619;BME280;18207;32.078;34.818;2022-11-21T13:22:54;100836.69;;;32.14;27.01
23619;BME280;18207;32.078;34.818;2022-11-21T13:25:44;100840.75;;;32.13;27.20
23619;BME280;18207;32.078;34.818;2022-11-21T13:28:46;100841.59;;;32.10;27.16
23619;BME280;18207;32.078;34.818;2022-11-21T13:31:31;100832.66;;;32.08;27.21